Weather at San Nicolas Island Nolf Airport

Public forecast

Using degrees Fahrenheit for public forecast. Weather courtesy of forecast.io.

Current aviation weather report (METAR) for San Nicolas Island Nolf Airport

Retrieved 2022/07/04 13:53 UTC (31 minutes ago):

KNSI 041353Z AUTO 31013KT 10SM OVC004 13/13 A2994 RMK AO2 SLP135 T01330128

Closest aviation forecast (TAF) to San Nicolas Island Nolf Airport

Forecast is more than 12 hours old.

Closest forecast is Point Mugu Naval Air Station (Naval Base Ventura Co), 55.5 nm (102.8 km) NNE. Retrieved 2016/08/04 23:22 UTC (6 years ago):

TAF KNTD 032300Z 0323/0423 27010G15KT 9999 SCT012 QNH2990INS BECMG 0401/0403 VRB06KT 9999 BKN012 QNH2988INS TEMPO 0403/0409 SCT012 FM040900 VRB05KT 9999 BKN010 QNH2985INS FM041700 24009KT 9999 SCT015 QNH2992INS AUTOMATED SENSOR METWATCH 0406 TIL 0413 TX17/0409Z TN23/0422Z FS30029